Aérodrome :
LOGIN :

S'inscrire | Disclaimer

   EN    FR    IT 

 










Légende :    VFR   VFR Marginal   IFR   IFR Intensif   IFR Très Intensif
Visi : 
Plafond : 
>= 8 km
>= 3000ft
5 à 8 km
1000 à 3000 ft
1500m à 5 km
500 à 1000 ft
800 à 1500m
200 à 500 ft
< 800m
< 200 ft
Symboles :   Orages  Brouillard  Fortes neiges  Fortes précipitations  Vent > 20 kt
SIGMETs :   Divers  Orages  Givrage  Turbulence  Onde Orograph.  Cendres Volcan.







- Altitude de l'aérodrome : 423 ft
- Code IATA : PIS
- Voir les cartes d'approche


LFBI - Poitiers

DERNIER METAR :
  • 290700Z AUTO 20013KT 9999 BKN009 BKN013 OVC110 15/13 Q1001 TEMPO 4500 SHRA BKN020TCU

METARs EXPIRÉS :
  • 290630Z AUTO 20010KT 9999 FEW017/// SCT035/// BKN060/// ///TCU 14/12 Q1001 TEMPO 4500 SHRA
  • 290600Z AUTO 21009KT 9999 -RA FEW028 OVC056 14/12 Q1001 TEMPO 4500 SHRA BKN020TCU
  • 290530Z AUTO 21010KT 9999 FEW045 SCT056 BKN066 14/13 Q1001 TEMPO 4500 SHRA BKN020TCU
  • 290500Z AUTO 21009KT 9999 FEW005 SCT078 BKN100 14/13 Q1001 TEMPO 4500 SHRA BKN020TCU FEW030CB
  • 290430Z AUTO 22007KT 9999 FEW007 SCT054 BKN074 14/13 Q1001 TEMPO 4500 SHRA BKN020TCU FEW030CB

TAF TAF LFBI
Valide du 29 à 06h jusqu'au 30 à 06h UTC


290500Z 2906/3006 22008KT 9999 BKN030
TEMPO 2906/3006 4500 SHRA BKN020TCU
PROB30
TEMPO 2909/2920 20015G25KT 1500 TSRA BKN010 BKN020CB
Pas de NOTAMs connus pour ce terrain.
1 SIGMET publié pour la FIR Bordeaux (LFBB) :
 
Turbulence forte
LFBB SIGMET 1 VALID 290530/290930 LFPW
LFBB BORDEAUX FIR/UIR SEV TURB FCST WI N4300 W00130 - N4300 W00145 - N4445 W00145 - N4500 W00100 SFC/FL050 STNR INTSF=



MET'MAP, la Météo Aéronautique d'un coup d'oeil ! - Copyright ORBIFLY Décembre 2007 - Disclaimer

ORBIFLY MET'MAP TEAM :

Programmation & Développement : Alexandra Zaïnal
Conception & Développement : Baudouin d'Aumeries
Co-Programmation & Développement : Marc-Olivier Méhu
Soutien technique & logistique : Manuel Goepfert

Contact : metmap@orbifly.com




SOURCES & CREDITS :

   NOAA